Saint Hilaire, Minnesota
Current Conditions -  °F | °C
As of 2:55 AM on Wednesday 26 Nov 2014 (Local Time) from KTVF Reporting Station
Broken Clouds Broken Clouds  
Wind Chill: -8°   Ceiling: 11000
Heat Index:   Visibility: 10mi
Dew Point:   Wind: 15mph
Humidity: 92%   Direction: 350°N
Pressure: 30.18"   Gusts: NA
Location:  48.01°N, 96.21°W
Report Text: KTVF 260855Z AUTO 35013KT 10SM BKN110 M13/M14 A3018 RMK AO1 52027
Loading
Personal Weather Stations






























Interactive Weather Map New forecast layout! Learn more

10-Day Weather Forecast

Advertisements
Track Severe Weather on mobile